Time;durP1;ratioP1;P1;durP2;ratioP2;P2;SDS_P1;SDS_P2;PMS_P1;PMS_P2;Temp;Humidity;BMP_temperature;BMP_pressure;BME280_temperature;BME280_humidity;BME280_pressure;Samples;Min_cycle;Max_cycle;Signal;HPM_P1;HPM_P2
2021/07/08 00:01:41;;;;;;;8.52;5.35;;;16.30;97.60;;;;;;4994228;28;20423;-88
2021/07/08 00:04:07;;;;;;;8.07;5.45;;;16.40;97.60;;;;;;4994111;28;20121;-89
2021/07/08 00:06:33;;;;;;;12.50;6.43;;;16.40;97.70;;;;;;4994166;28;20109;-88
2021/07/08 00:08:58;;;;;;;10.40;6.28;;;16.40;97.70;;;;;;4993821;28;20033;-88
2021/07/08 00:11:25;;;;;;;9.55;6.03;;;16.30;97.60;;;;;;4995099;28;20018;-87
2021/07/08 00:13:52;;;;;;;9.82;6.30;;;16.30;97.50;;;;;;4995086;28;20308;-87
2021/07/08 00:16:17;;;;;;;10.20;6.90;;;16.10;97.50;;;;;;4991902;28;20034;-88
2021/07/08 00:18:43;;;;;;;9.27;6.30;;;16.00;97.50;;;;;;4994898;28;20030;-87
2021/07/08 00:21:09;;;;;;;9.10;6.13;;;16.00;97.60;;;;;;5008678;28;20157;-87
2021/07/08 00:23:35;;;;;;;8.25;5.82;;;15.90;97.50;;;;;;5001440;28;20025;-87
2021/07/08 00:26:01;;;;;;;11.27;6.38;;;15.80;97.60;;;;;;5005636;28;20064;-86
2021/07/08 00:28:26;;;;;;;10.32;5.50;;;15.80;97.80;;;;;;5014601;28;20323;-85
2021/07/08 00:30:52;;;;;;;6.85;4.60;;;15.70;97.60;;;;;;4995801;28;20076;-86
2021/07/08 00:33:19;;;;;;;6.53;4.03;;;15.70;97.40;;;;;;4997199;28;20033;-86
2021/07/08 00:35:45;;;;;;;9.82;4.68;;;15.60;97.50;;;;;;5014466;28;20331;-86
2021/07/08 00:38:12;;;;;;;10.25;3.92;;;15.60;97.40;;;;;;4998204;28;20022;-86
2021/07/08 00:40:38;;;;;;;8.27;4.65;;;15.50;97.50;;;;;;5018481;28;20029;-86
2021/07/08 00:43:04;;;;;;;9.05;5.28;;;15.50;97.40;;;;;;5011316;28;20022;-86
2021/07/08 00:45:29;;;;;;;9.38;4.70;;;15.50;97.20;;;;;;5028918;28;20037;-86
2021/07/08 00:47:55;;;;;;;9.20;4.75;;;15.50;97.00;;;;;;5010037;28;20026;-86
2021/07/08 00:50:32;;;;;;;7.35;4.15;;;15.50;96.80;;;;;;5002647;28;20342;-87
2021/07/08 00:52:58;;;;;;;10.07;4.20;;;15.50;96.50;;;;;;5027745;28;20050;-86
2021/07/08 00:55:27;;;;;;;9.57;4.65;;;15.50;96.40;;;;;;5018897;28;20048;-86
2021/07/08 00:57:53;;;;;;;7.95;5.25;;;15.40;96.10;;;;;;5028954;28;20036;-86
2021/07/08 01:00:21;;;;;;;8.00;5.07;;;15.40;95.80;;;;;;5016702;28;20310;-86
2021/07/08 01:02:49;;;;;;;7.80;4.68;;;15.40;95.30;;;;;;5018094;28;20423;-86
2021/07/08 01:05:16;;;;;;;6.82;4.25;;;15.40;95.50;;;;;;5021114;28;20021;-86
2021/07/08 01:07:44;;;;;;;5.97;3.25;;;15.30;95.80;;;;;;5022364;28;20410;-86
2021/07/08 01:10:11;;;;;;;6.32;2.55;;;15.30;96.10;;;;;;5000520;28;20037;-86
2021/07/08 01:12:37;;;;;;;5.80;3.05;;;15.20;96.30;;;;;;4995216;28;20030;-86
2021/07/08 01:15:05;;;;;;;3.75;1.75;;;15.20;96.30;;;;;;5017487;28;20441;-86
2021/07/08 01:17:31;;;;;;;3.40;1.80;;;15.10;96.30;;;;;;5016460;28;20021;-86
2021/07/08 01:19:56;;;;;;;3.22;1.75;;;15.00;96.50;;;;;;5000105;28;20026;-86
2021/07/08 01:22:22;;;;;;;2.50;1.30;;;15.00;96.70;;;;;;5017791;28;20053;-86
2021/07/08 01:24:49;;;;;;;2.55;1.27;;;14.90;96.70;;;;;;5000482;28;20033;-86
2021/07/08 01:27:15;;;;;;;2.45;1.23;;;14.80;97.10;;;;;;5017691;28;20040;-86
2021/07/08 01:29:41;;;;;;;1.88;1.13;;;14.80;97.00;;;;;;5004085;28;20066;-85
2021/07/08 01:32:07;;;;;;;5.00;1.98;;;14.70;96.70;;;;;;5015743;28;20500;-86
2021/07/08 01:34:33;;;;;;;6.03;1.92;;;14.70;96.70;;;;;;5000178;28;20030;-86
2021/07/08 01:36:59;;;;;;;9.63;2.80;;;14.70;96.40;;;;;;5016621;28;20390;-86
2021/07/08 01:39:25;;;;;;;5.15;3.00;;;14.80;95.90;;;;;;5012652;28;20088;-86
2021/07/08 01:41:51;;;;;;;6.10;2.35;;;14.80;95.50;;;;;;5030642;28;20025;-86
2021/07/08 01:44:17;;;;;;;3.13;1.70;;;14.90;94.80;;;;;;5017759;28;20352;-86
2021/07/08 01:46:44;;;;;;;3.70;1.80;;;14.80;95.00;;;;;;5015978;28;20025;-86
2021/07/08 01:49:10;;;;;;;3.17;1.95;;;14.80;94.60;;;;;;4999572;28;20080;-86
2021/07/08 01:51:36;;;;;;;4.30;2.38;;;14.80;95.30;;;;;;5012573;28;20173;-86
2021/07/08 01:54:05;;;;;;;4.75;2.50;;;14.80;94.70;;;;;;5001557;28;20065;-86
2021/07/08 01:56:32;;;;;;;5.20;2.30;;;14.80;94.70;;;;;;5017329;28;20354;-86
2021/07/08 01:58:58;;;;;;;4.53;2.42;;;14.80;94.10;;;;;;5016708;28;20022;-86
2021/07/08 02:01:23;;;;;;;4.88;2.70;;;14.90;94.30;;;;;;5014437;28;20028;-86
2021/07/08 02:03:49;;;;;;;5.45;3.42;;;14.90;94.10;;;;;;5018048;28;20092;-85
2021/07/08 02:06:16;;;;;;;5.38;3.70;;;14.80;94.10;;;;;;5004053;28;20088;-85
2021/07/08 02:08:45;;;;;;;5.65;3.92;;;14.80;93.90;;;;;;5016613;28;20025;-85
2021/07/08 02:11:12;;;;;;;7.88;3.53;;;14.80;93.60;;;;;;5023080;28;20033;-85
2021/07/08 02:13:38;;;;;;;6.65;4.30;;;14.80;93.70;;;;;;5003688;28;20058;-88
2021/07/08 02:16:06;;;;;;;6.82;4.00;;;14.80;93.60;;;;;;4998171;28;20068;-88
2021/07/08 02:18:33;;;;;;;7.97;4.68;;;14.70;93.60;;;;;;5016977;28;20596;-86
2021/07/08 02:20:59;;;;;;;8.13;5.32;;;14.70;93.00;;;;;;5009394;28;20118;-86
2021/07/08 02:23:25;;;;;;;7.32;5.10;;;14.70;93.10;;;;;;5025135;28;20025;-86
2021/07/08 02:25:50;;;;;;;6.65;4.75;;;14.70;93.10;;;;;;5020064;28;20087;-87
2021/07/08 02:28:16;;;;;;;18.10;6.43;;;14.70;92.60;;;;;;5029249;28;20041;-86
2021/07/08 02:30:42;;;;;;;7.97;5.35;;;14.70;92.60;;;;;;5035780;28;20437;-87
2021/07/08 02:33:09;;;;;;;8.32;5.28;;;14.70;92.60;;;;;;5024350;28;20038;-87
2021/07/08 02:35:35;;;;;;;9.68;4.88;;;14.70;92.40;;;;;;5018237;28;20050;-86
2021/07/08 02:38:02;;;;;;;8.82;5.65;;;14.80;92.40;;;;;;5006872;28;20048;-87
2021/07/08 02:40:33;;;;;;;8.73;5.35;;;14.70;92.90;;;;;;5032161;28;20029;-87
2021/07/08 02:43:00;;;;;;;6.68;4.63;;;14.70;92.60;;;;;;5017765;28;20036;-87
2021/07/08 02:45:29;;;;;;;6.40;4.30;;;14.60;92.90;;;;;;5015970;28;20112;-87
2021/07/08 02:47:56;;;;;;;8.57;3.50;;;14.60;92.80;;;;;;5000413;28;20022;-86
2021/07/08 02:50:24;;;;;;;7.60;4.85;;;14.60;92.50;;;;;;5000833;28;20037;-86
2021/07/08 02:52:50;;;;;;;7.53;4.20;;;14.50;92.60;;;;;;4999887;28;20038;-86
2021/07/08 02:55:16;;;;;;;6.05;3.50;;;14.60;92.20;;;;;;5022201;28;20025;-86
2021/07/08 02:57:45;;;;;;;6.18;3.17;;;14.50;92.40;;;;;;5000289;28;20351;-87
2021/07/08 03:00:14;;;;;;;7.55;4.03;;;14.50;92.40;;;;;;5016000;28;20025;-86
2021/07/08 03:02:40;;;;;;;6.75;3.88;;;14.50;92.30;;;;;;5019396;28;20087;-87
2021/07/08 03:05:07;;;;;;;7.35;3.85;;;14.50;92.30;;;;;;5002273;28;20026;-86
2021/07/08 03:07:33;;;;;;;6.65;4.32;;;14.50;92.00;;;;;;5021142;28;20029;-87
2021/07/08 03:10:00;;;;;;;7.22;3.60;;;14.50;91.80;;;;;;4999728;28;20057;-87
2021/07/08 03:12:29;;;;;;;13.02;4.60;;;14.50;92.00;;;;;;5016628;28;20075;-86
2021/07/08 03:14:54;;;;;;;7.78;4.15;;;14.50;91.80;;;;;;5015778;28;20437;-87
2021/07/08 03:17:20;;;;;;;6.88;3.95;;;14.50;91.80;;;;;;4998308;28;20030;-87
2021/07/08 03:19:46;;;;;;;6.53;4.10;;;14.50;92.00;;;;;;4999449;28;20038;-87
2021/07/08 03:22:11;;;;;;;7.93;4.13;;;14.50;91.70;;;;;;5013896;28;20374;-87
2021/07/08 03:24:37;;;;;;;9.48;4.63;;;14.50;91.60;;;;;;5027225;28;20041;-87
2021/07/08 03:27:03;;;;;;;6.30;3.92;;;14.50;91.90;;;;;;5020763;28;20080;-86
2021/07/08 03:29:29;;;;;;;6.82;3.97;;;14.50;91.80;;;;;;5016222;28;20026;-87
2021/07/08 03:31:55;;;;;;;5.90;3.45;;;14.50;91.70;;;;;;5000857;28;20474;-86
2021/07/08 03:34:21;;;;;;;6.72;3.45;;;14.60;91.40;;;;;;5013649;28;20033;-87
2021/07/08 03:36:46;;;;;;;6.18;3.90;;;14.60;91.60;;;;;;5003299;28;20046;-87
2021/07/08 03:39:12;;;;;;;7.43;4.00;;;14.60;91.40;;;;;;5030786;28;20028;-87
2021/07/08 03:41:38;;;;;;;9.43;4.05;;;14.60;91.50;;;;;;5025101;28;20024;-87
2021/07/08 03:44:04;;;;;;;6.07;3.92;;;14.60;91.50;;;;;;5020850;28;20022;-87
2021/07/08 03:46:30;;;;;;;6.28;3.63;;;14.60;91.40;;;;;;5015409;28;20030;-87
2021/07/08 03:48:56;;;;;;;6.07;3.20;;;14.60;91.40;;;;;;4999064;28;20437;-87
2021/07/08 03:51:21;;;;;;;6.05;3.83;;;14.60;91.40;;;;;;4998900;28;20030;-87
2021/07/08 03:53:47;;;;;;;5.93;3.50;;;14.60;91.50;;;;;;5015789;28;20033;-87
2021/07/08 03:56:14;;;;;;;5.25;2.88;;;14.60;91.70;;;;;;5015902;28;20433;-87
2021/07/08 03:58:40;;;;;;;5.30;3.33;;;14.50;91.70;;;;;;5004643;28;20446;-87
2021/07/08 04:01:06;;;;;;;6.25;3.17;;;14.60;91.50;;;;;;5014892;28;20018;-86
2021/07/08 04:03:32;;;;;;;5.03;2.72;;;14.60;91.70;;;;;;5015977;28;20056;-87
2021/07/08 04:05:57;;;;;;;4.75;3.15;;;14.60;91.60;;;;;;4997737;28;20095;-87
2021/07/08 04:08:23;;;;;;;5.30;2.65;;;14.60;91.50;;;;;;5015363;28;20101;-87
2021/07/08 04:10:49;;;;;;;6.70;2.55;;;14.60;91.60;;;;;;4998120;28;20034;-87
2021/07/08 04:13:17;;;;;;;5.65;3.00;;;14.60;91.60;;;;;;4997894;28;20033;-87
2021/07/08 04:15:45;;;;;;;5.10;2.80;;;14.60;91.80;;;;;;5012693;28;20018;-87
2021/07/08 04:18:12;;;;;;;5.40;2.80;;;14.70;91.60;;;;;;5015953;28;20112;-87
2021/07/08 04:20:39;;;;;;;5.60;2.92;;;14.70;91.70;;;;;;4999825;28;20048;-86
2021/07/08 04:23:06;;;;;;;3.97;2.30;;;14.70;91.80;;;;;;5015066;28;20025;-87
2021/07/08 04:25:36;;;;;;;7.47;2.65;;;14.70;91.80;;;;;;4998959;28;20037;-87
2021/07/08 04:28:03;;;;;;;5.75;2.40;;;14.70;92.00;;;;;;5015183;28;20116;-87
2021/07/08 04:30:29;;;;;;;4.75;2.58;;;14.80;92.10;;;;;;5008449;28;20033;-88
2021/07/08 04:32:55;;;;;;;5.60;2.20;;;14.80;92.10;;;;;;4991983;28;20370;-87
2021/07/08 04:35:29;;;;;;;3.92;2.20;;;14.80;92.40;;;;;;5013953;28;20060;-88
2021/07/08 04:37:55;;;;;;;4.05;2.38;;;14.80;92.60;;;;;;5014164;28;20025;-87
2021/07/08 04:40:20;;;;;;;5.50;2.42;;;14.70;92.60;;;;;;4997083;28;20037;-87
2021/07/08 04:42:48;;;;;;;3.83;2.08;;;14.80;92.60;;;;;;5012991;28;20034;-86
2021/07/08 04:45:14;;;;;;;4.05;2.05;;;14.80;92.80;;;;;;4995367;28;20033;-87
2021/07/08 04:47:41;;;;;;;4.00;2.30;;;14.80;92.70;;;;;;4997058;28;20026;-87
2021/07/08 04:50:16;;;;;;;3.97;1.90;;;14.80;93.10;;;;;;4999081;28;20036;-88
2021/07/08 04:52:43;;;;;;;5.53;2.55;;;14.80;93.20;;;;;;4984494;28;20036;-87
2021/07/08 04:55:11;;;;;;;8.35;2.40;;;14.80;93.20;;;;;;4997735;28;20364;-87
2021/07/08 04:57:37;;;;;;;3.67;2.38;;;14.90;93.30;;;;;;4997798;28;20088;-87
2021/07/08 05:00:09;;;;;;;3.85;2.20;;;14.90;93.50;;;;;;5012084;28;20364;-87
2021/07/08 05:02:42;;;;;;;4.45;2.50;;;15.00;94.10;;;;;;4991266;28;20014;-86
2021/07/08 05:05:09;;;;;;;4.57;2.70;;;15.10;94.70;;;;;;4994723;28;20366;-87
2021/07/08 05:07:36;;;;;;;4.90;2.90;;;15.20;96.10;;;;;;5013303;28;20025;-89
2021/07/08 05:10:04;;;;;;;4.35;2.38;;;15.20;96.70;;;;;;5019129;28;20377;-89
2021/07/08 05:12:33;;;;;;;5.72;2.65;;;15.30;97.60;;;;;;5017331;28;20319;-89
2021/07/08 05:14:59;;;;;;;4.40;2.60;;;15.30;97.90;;;;;;5013579;28;20026;-88
2021/07/08 05:17:28;;;;;;;4.57;2.92;;;15.30;98.00;;;;;;5013027;28;20052;-88
2021/07/08 05:19:53;;;;;;;5.22;3.40;;;15.30;98.00;;;;;;4996583;28;20103;-88
2021/07/08 05:22:22;;;;;;;6.35;3.88;;;15.40;98.00;;;;;;5013922;28;20058;-88
2021/07/08 05:24:52;;;;;;;5.65;3.50;;;15.40;98.00;;;;;;5016159;28;20112;-87
2021/07/08 05:27:17;;;;;;;9.05;4.47;;;15.50;98.00;;;;;;5000372;28;20373;-87
2021/07/08 05:29:48;;;;;;;5.32;3.63;;;15.50;98.00;;;;;;5000324;28;20129;-87
2021/07/08 05:32:14;;;;;;;5.95;4.05;;;15.50;98.00;;;;;;5016835;28;20026;-85
2021/07/08 05:34:43;;;;;;;5.85;3.92;;;15.60;98.00;;;;;;5017632;28;20034;-87
2021/07/08 05:37:10;;;;;;;10.13;5.00;;;15.60;98.00;;;;;;5017245;28;20029;-87
2021/07/08 05:39:36;;;;;;;8.13;4.63;;;15.70;98.00;;;;;;5000340;28;20037;-87
2021/07/08 05:42:03;;;;;;;6.13;4.07;;;15.70;98.00;;;;;;5016601;28;20026;-86
2021/07/08 05:44:30;;;;;;;6.10;3.70;;;15.80;98.00;;;;;;5002702;28;20026;-87
2021/07/08 05:46:56;;;;;;;5.22;3.17;;;15.80;98.00;;;;;;5015774;28;20080;-86
2021/07/08 05:49:21;;;;;;;6.22;3.55;;;15.80;97.90;;;;;;5017327;28;20060;-87
2021/07/08 05:51:47;;;;;;;5.15;3.40;;;15.80;98.00;;;;;;5016997;28;20030;-87
2021/07/08 05:54:13;;;;;;;5.97;3.35;;;15.90;97.80;;;;;;5017049;28;20445;-87
2021/07/08 05:56:38;;;;;;;6.57;3.85;;;15.90;98.00;;;;;;5017192;28;20156;-86
2021/07/08 05:59:04;;;;;;;8.38;3.92;;;15.90;98.00;;;;;;5007294;28;20572;-87
2021/07/08 06:01:30;;;;;;;8.75;4.63;;;15.80;98.00;;;;;;5010351;28;20022;-87
2021/07/08 06:03:55;;;;;;;6.82;4.07;;;15.90;98.00;;;;;;5016852;28;20026;-86
2021/07/08 06:06:21;;;;;;;5.68;3.83;;;15.90;98.00;;;;;;5006581;28;20076;-86
2021/07/08 06:08:47;;;;;;;6.03;3.92;;;16.10;98.00;;;;;;5015906;28;20034;-86
2021/07/08 06:11:13;;;;;;;5.93;3.70;;;16.20;98.00;;;;;;5017035;28;20018;-87
2021/07/08 06:13:39;;;;;;;5.82;3.17;;;16.30;97.90;;;;;;5016845;28;20036;-87
2021/07/08 06:16:05;;;;;;;5.35;3.47;;;16.50;97.90;;;;;;5011233;28;20117;-87
2021/07/08 06:18:31;;;;;;;4.65;2.90;;;16.70;98.00;;;;;;5016798;28;20498;-87
2021/07/08 06:20:57;;;;;;;5.22;3.05;;;16.90;98.00;;;;;;5016461;28;20042;-87
2021/07/08 06:23:23;;;;;;;7.22;3.63;;;17.00;98.00;;;;;;5016845;28;20034;-87
2021/07/08 06:25:49;;;;;;;13.02;4.28;;;17.10;98.00;;;;;;5016191;28;20041;-86
2021/07/08 06:28:16;;;;;;;6.00;4.28;;;17.10;98.00;;;;;;5016812;28;20045;-87
2021/07/08 06:30:42;;;;;;;6.45;4.35;;;17.00;98.00;;;;;;5014759;28;20671;-86
2021/07/08 06:33:08;;;;;;;7.07;4.40;;;17.00;98.00;;;;;;5016146;28;20034;-87
2021/07/08 06:35:34;;;;;;;7.63;4.40;;;16.90;98.00;;;;;;5015122;28;20033;-87
2021/07/08 06:38:00;;;;;;;7.70;4.88;;;16.90;98.00;;;;;;5015950;28;20029;-87
2021/07/08 06:40:26;;;;;;;6.05;4.10;;;16.70;98.00;;;;;;4998599;28;20034;-85
2021/07/08 06:42:53;;;;;;;5.95;3.70;;;16.60;98.00;;;;;;5016042;28;20092;-87
2021/07/08 06:45:19;;;;;;;15.48;4.28;;;16.50;98.00;;;;;;5015314;28;20030;-87
2021/07/08 06:47:51;;;;;;;7.13;3.47;;;16.40;98.00;;;;;;4998754;28;20161;-87
2021/07/08 06:50:20;;;;;;;4.68;2.95;;;16.30;98.00;;;;;;5016137;28;20030;-86
2021/07/08 06:52:46;;;;;;;7.68;3.22;;;16.30;97.90;;;;;;5015858;28;20034;-87
2021/07/08 06:55:13;;;;;;;5.82;3.40;;;16.40;98.00;;;;;;5015688;28;20022;-87
2021/07/08 06:57:57;;;;;;;7.60;3.28;;;16.40;98.00;;;;;;4998974;28;20387;-87
2021/07/08 07:00:25;;;;;;;7.30;4.03;;;16.50;98.00;;;;;;4997001;28;20037;-87
2021/07/08 07:02:56;;;;;;;5.50;3.47;;;16.60;98.00;;;;;;5006773;28;20320;-86
2021/07/08 07:05:23;;;;;;;6.88;4.05;;;16.70;98.00;;;;;;4999617;28;20029;-87
2021/07/08 07:07:51;;;;;;;6.60;3.88;;;16.80;98.00;;;;;;5015214;28;20026;-87
2021/07/08 07:10:17;;;;;;;7.68;4.30;;;16.80;98.00;;;;;;4998273;28;20030;-87
2021/07/08 07:12:44;;;;;;;9.93;4.65;;;16.90;98.00;;;;;;4998535;28;20030;-86
2021/07/08 07:15:11;;;;;;;7.00;4.53;;;16.90;98.00;;;;;;5014725;28;20072;-85
2021/07/08 07:17:38;;;;;;;7.38;4.47;;;16.80;98.00;;;;;;5015776;28;20096;-85
2021/07/08 07:20:06;;;;;;;7.63;5.25;;;16.80;98.00;;;;;;5015191;28;20022;-85
2021/07/08 07:22:32;;;;;;;6.88;4.78;;;16.80;98.00;;;;;;4997932;28;20046;-86
2021/07/08 07:24:58;;;;;;;6.97;4.68;;;16.80;98.00;;;;;;5015047;28;20330;-85
2021/07/08 07:27:24;;;;;;;7.55;4.75;;;16.90;98.00;;;;;;4998134;28;20033;-85
2021/07/08 07:29:50;;;;;;;6.38;4.43;;;16.90;98.00;;;;;;4997584;28;20419;-85
2021/07/08 07:32:15;;;;;;;7.20;4.25;;;16.80;98.00;;;;;;5013803;28;20326;-86
2021/07/08 07:34:41;;;;;;;5.72;3.67;;;16.70;98.00;;;;;;5015337;28;20441;-85
2021/07/08 07:37:06;;;;;;;6.82;3.88;;;16.60;98.00;;;;;;4997535;28;20030;-85
2021/07/08 07:39:32;;;;;;;6.65;4.07;;;16.50;98.00;;;;;;5015215;28;20025;-85
2021/07/08 07:41:58;;;;;;;5.18;3.28;;;16.50;97.80;;;;;;5015091;28;20037;-85
2021/07/08 07:44:23;;;;;;;6.40;3.85;;;16.60;98.00;;;;;;5014746;28;20329;-85
2021/07/08 07:46:49;;;;;;;6.32;4.22;;;16.80;98.00;;;;;;5013429;28;20032;-85
2021/07/08 07:49:16;;;;;;;9.05;5.00;;;17.00;98.00;;;;;;5014773;28;20029;-85
2021/07/08 07:51:41;;;;;;;6.20;4.55;;;17.20;97.90;;;;;;5014744;28;20427;-85
2021/07/08 07:54:07;;;;;;;6.15;3.80;;;17.40;98.00;;;;;;5014972;28;20053;-85
2021/07/08 07:56:33;;;;;;;5.32;3.47;;;17.50;98.00;;;;;;4997598;28;20030;-85
2021/07/08 07:58:58;;;;;;;4.93;3.17;;;17.60;98.00;;;;;;5014803;28;20036;-84
2021/07/08 08:01:24;;;;;;;4.35;2.53;;;17.80;98.00;;;;;;5012649;28;20064;-85
2021/07/08 08:03:50;;;;;;;8.63;5.18;;;18.00;97.50;;;;;;5000067;28;20037;-86
2021/07/08 08:09:01;;;;;;;7.35;5.32;;;17.40;97.80;;;;;;5003724;28;20049;-85
2021/07/08 08:11:30;;;;;;;8.57;5.65;;;17.10;97.90;;;;;;5014824;28;20030;-86
2021/07/08 08:13:56;;;;;;;8.10;5.72;;;17.10;98.00;;;;;;5014508;28;20026;-86
2021/07/08 08:16:22;;;;;;;7.30;4.80;;;17.20;97.80;;;;;;4996214;28;20033;-85
2021/07/08 08:18:47;;;;;;;9.02;6.05;;;17.60;97.90;;;;;;5014404;28;20021;-85
2021/07/08 08:21:13;;;;;;;9.05;4.97;;;18.00;98.00;;;;;;5014531;28;20050;-85
2021/07/08 08:23:39;;;;;;;8.88;6.00;;;18.40;98.00;;;;;;5014929;28;20022;-85
2021/07/08 08:26:05;;;;;;;14.00;5.70;;;18.60;97.70;;;;;;5014273;28;20092;-85
2021/07/08 08:28:31;;;;;;;8.30;6.60;;;18.60;97.50;;;;;;5014685;28;20074;-85
2021/07/08 08:30:57;;;;;;;8.88;6.07;;;18.30;97.60;;;;;;4995463;28;20037;-85
2021/07/08 08:33:22;;;;;;;8.13;5.28;;;18.00;97.80;;;;;;4996068;28;20057;-86
2021/07/08 08:35:48;;;;;;;8.60;6.20;;;17.90;98.00;;;;;;4996809;28;20423;-86
2021/07/08 08:38:14;;;;;;;7.88;5.80;;;18.00;97.80;;;;;;5014495;28;20053;-85
2021/07/08 08:40:39;;;;;;;7.50;5.97;;;18.10;98.00;;;;;;4997138;28;20121;-86
2021/07/08 08:43:05;;;;;;;7.68;4.90;;;18.10;97.60;;;;;;5014292;28;20037;-85
2021/07/08 08:45:31;;;;;;;7.55;4.85;;;18.20;97.80;;;;;;5013607;28;20104;-86
2021/07/08 08:48:03;;;;;;;7.47;4.97;;;18.50;98.00;;;;;;5014109;28;20425;-86
2021/07/08 08:50:30;;;;;;;8.40;5.22;;;18.60;97.10;;;;;;5014340;28;20034;-85
2021/07/08 08:52:56;;;;;;;6.60;4.80;;;18.60;97.30;;;;;;5014237;28;20053;-85
2021/07/08 08:55:22;;;;;;;6.47;4.25;;;18.60;97.10;;;;;;5014486;28;20053;-86
2021/07/08 08:57:48;;;;;;;7.95;5.55;;;18.60;97.30;;;;;;4997017;28;20071;-86
2021/07/08 09:00:26;;;;;;;8.20;5.70;;;18.60;97.30;;;;;;5015943;28;20025;-86
2021/07/08 09:02:59;;;;;;;7.65;5.53;;;18.60;97.30;;;;;;5000527;28;20049;-86
2021/07/08 09:05:24;;;;;;;7.82;5.60;;;18.60;97.20;;;;;;5002937;28;20030;-86
2021/07/08 09:07:50;;;;;;;9.50;5.43;;;18.40;97.00;;;;;;5017789;28;20056;-87
2021/07/08 09:10:16;;;;;;;7.78;5.05;;;18.30;97.30;;;;;;5018049;28;20042;-86
2021/07/08 09:12:43;;;;;;;7.38;4.93;;;18.40;97.50;;;;;;5018112;28;20054;-86
2021/07/08 09:15:19;;;;;;;7.80;4.90;;;18.40;97.30;;;;;;4998759;28;20026;-85
2021/07/08 09:17:46;;;;;;;8.25;5.57;;;18.40;97.80;;;;;;5017525;28;20030;-86
2021/07/08 09:20:14;;;;;;;7.88;5.32;;;18.20;97.50;;;;;;5000358;28;20108;-87
2021/07/08 09:22:40;;;;;;;8.77;5.03;;;18.10;97.80;;;;;;5018071;28;20046;-86
2021/07/08 09:25:21;;;;;;;10.65;5.50;;;18.00;98.00;;;;;;5000280;28;20038;-86
2021/07/08 09:28:10;;;;;;;7.72;5.30;;;18.10;98.00;;;;;;5017558;28;20113;-87
2021/07/08 09:30:37;;;;;;;7.80;4.90;;;18.10;97.80;;;;;;4998936;28;20026;-86
2021/07/08 09:33:03;;;;;;;7.43;5.25;;;18.40;98.00;;;;;;5017156;28;20026;-86
2021/07/08 09:35:35;;;;;;;6.60;4.47;;;18.50;97.40;;;;;;5017165;28;20030;-86
2021/07/08 09:38:23;;;;;;;7.63;4.13;;;18.50;97.60;;;;;;5002103;28;20050;-86
2021/07/08 09:41:07;;;;;;;9.10;4.93;;;18.90;97.30;;;;;;4982286;28;20030;-86
2021/07/08 09:43:34;;;;;;;6.63;3.88;;;19.30;96.70;;;;;;5002219;28;20080;-86
2021/07/08 09:46:00;;;;;;;6.32;4.28;;;19.60;96.50;;;;;;5017469;28;20458;-86
2021/07/08 09:48:26;;;;;;;5.78;3.65;;;19.70;96.40;;;;;;5018047;28;20419;-85
2021/07/08 09:50:51;;;;;;;4.97;3.20;;;19.80;95.50;;;;;;5001277;28;20030;-86
2021/07/08 09:53:25;;;;;;;6.88;3.85;;;19.90;95.70;;;;;;5018691;28;20072;-85
2021/07/08 09:56:06;;;;;;;7.60;4.35;;;20.10;95.20;;;;;;4999305;28;20076;-86
2021/07/08 09:58:36;;;;;;;5.55;3.65;;;20.00;95.10;;;;;;4999942;28;20023;-86
2021/07/08 10:01:15;;;;;;;9.35;3.78;;;19.90;95.40;;;;;;5017431;28;20030;-86
2021/07/08 10:03:44;;;;;;;5.88;3.85;;;19.90;95.70;;;;;;5000799;28;20045;-86
2021/07/08 10:06:10;;;;;;;10.57;4.40;;;20.00;95.20;;;;;;5015909;28;20453;-86
2021/07/08 10:08:36;;;;;;;9.07;4.90;;;20.10;95.60;;;;;;5000295;28;20032;-85
2021/07/08 10:11:03;;;;;;;6.45;3.88;;;19.90;95.50;;;;;;5002520;28;20034;-87
2021/07/08 10:13:31;;;;;;;4.97;2.80;;;20.10;95.20;;;;;;5018016;28;20446;-86
2021/07/08 10:15:58;;;;;;;9.13;3.40;;;20.40;95.60;;;;;;5016814;28;20307;-86
2021/07/08 10:18:26;;;;;;;5.15;3.00;;;20.60;94.80;;;;;;5001085;28;20034;-87
2021/07/08 10:20:54;;;;;;;5.65;2.65;;;20.80;94.80;;;;;;5017252;28;20130;-87
2021/07/08 10:23:20;;;;;;;4.13;2.50;;;21.10;94.60;;;;;;5000808;28;20054;-86
2021/07/08 10:25:47;;;;;;;5.55;2.72;;;21.20;93.90;;;;;;5017895;28;20060;-87
2021/07/08 10:28:13;;;;;;;5.68;2.65;;;20.70;94.10;;;;;;5018052;28;20032;-87
2021/07/08 10:30:39;;;;;;;5.20;2.67;;;20.40;94.20;;;;;;4999337;28;20370;-87
2021/07/08 10:33:05;;;;;;;4.53;2.67;;;20.10;94.70;;;;;;5017974;28;20026;-87
2021/07/08 10:35:38;;;;;;;6.93;3.00;;;20.30;94.70;;;;;;5017244;28;20026;-87
2021/07/08 10:38:29;;;;;;;4.30;2.58;;;20.40;94.40;;;;;;5017887;28;20022;-87
2021/07/08 10:41:16;;;;;;;4.18;2.38;;;20.50;94.80;;;;;;4981063;28;20026;-86
2021/07/08 10:43:43;;;;;;;6.00;2.22;;;20.50;94.40;;;;;;4972158;28;20057;-87
2021/07/08 10:46:14;;;;;;;4.40;2.42;;;20.50;94.70;;;;;;5016691;28;20064;-86
2021/07/08 10:48:46;;;;;;;4.00;2.38;;;20.50;94.80;;;;;;5017184;28;20722;-86
2021/07/08 10:51:28;;;;;;;4.20;2.35;;;20.50;95.00;;;;;;5017373;28;20477;-86
2021/07/08 10:53:54;;;;;;;4.78;2.25;;;20.40;94.80;;;;;;5017306;28;20069;-86
2021/07/08 10:56:33;;;;;;;4.85;1.90;;;20.40;95.20;;;;;;5000304;28;20026;-87
2021/07/08 10:59:11;;;;;;;3.75;2.15;;;20.50;95.30;;;;;;5001835;28;20050;-88
2021/07/08 11:01:43;;;;;;;3.95;2.30;;;20.60;94.90;;;;;;4999028;28;20104;-88
2021/07/08 11:04:13;;;;;;;3.63;2.20;;;20.70;95.10;;;;;;5017449;28;20374;-87
2021/07/08 11:06:44;;;;;;;4.00;2.15;;;20.80;94.50;;;;;;5016332;28;20037;-87
2021/07/08 11:09:19;;;;;;;5.57;2.13;;;20.90;94.50;;;;;;5000021;28;20419;-87
2021/07/08 11:11:50;;;;;;;4.82;1.88;;;20.80;94.20;;;;;;5016224;28;20030;-87
2021/07/08 11:14:20;;;;;;;3.40;1.85;;;21.00;94.50;;;;;;5017114;28;20057;-87
2021/07/08 11:16:52;;;;;;;3.83;1.85;;;21.30;94.30;;;;;;5016006;28;20030;-86
2021/07/08 11:19:21;;;;;;;3.78;1.95;;;21.60;92.90;;;;;;5016955;28;20104;-86
2021/07/08 11:21:53;;;;;;;3.08;1.63;;;22.00;93.10;;;;;;5016552;28;20064;-87
2021/07/08 11:24:21;;;;;;;3.90;2.03;;;22.20;91.80;;;;;;5017027;28;20053;-86
2021/07/08 11:26:55;;;;;;;4.85;2.80;;;22.10;91.20;;;;;;4999710;28;20029;-87
2021/07/08 11:29:39;;;;;;;;;;;21.80;92.00;;;;;;5016905;28;20029;-86
2021/07/08 11:32:23;;;;;;;5.38;3.25;;;21.40;93.40;;;;;;5015195;28;19925;-86
2021/07/08 11:34:59;;;;;;;5.00;3.13;;;21.00;93.60;;;;;;5016987;28;20057;-87
2021/07/08 11:37:39;;;;;;;4.90;3.25;;;20.80;94.60;;;;;;5012694;28;20026;-87
2021/07/08 11:40:17;;;;;;;5.60;2.65;;;20.80;94.60;;;;;;5015026;28;20087;-85
2021/07/08 11:42:45;;;;;;;8.18;2.95;;;20.70;94.80;;;;;;4997985;28;20060;-87
2021/07/08 11:45:13;;;;;;;4.32;2.17;;;20.60;94.50;;;;;;5013829;28;20030;-86
2021/07/08 11:47:49;;;;;;;4.00;2.00;;;20.70;94.00;;;;;;4996961;28;20030;-86
2021/07/08 11:50:22;;;;;;;4.00;2.35;;;20.70;94.20;;;;;;5014584;28;20292;-86
2021/07/08 11:53:04;;;;;;;4.18;2.10;;;20.90;94.50;;;;;;5015064;28;20108;-86
2021/07/08 11:55:33;;;;;;;3.85;2.15;;;21.20;94.80;;;;;;5014854;28;20073;-85
2021/07/08 11:58:00;;;;;;;3.92;1.92;;;21.30;93.20;;;;;;4997556;28;20029;-86
2021/07/08 12:00:28;;;;;;;5.00;2.20;;;21.50;93.20;;;;;;4994800;28;20094;-86
2021/07/08 12:02:53;;;;;;;4.13;1.80;;;21.70;92.60;;;;;;4997275;28;20373;-86
2021/07/08 12:05:21;;;;;;;3.60;1.67;;;21.70;92.40;;;;;;4997080;28;20125;-86
2021/07/08 12:07:50;;;;;;;2.33;1.30;;;22.10;91.30;;;;;;5014638;28;20017;-86
2021/07/08 12:10:23;;;;;;;5.85;1.55;;;22.20;89.60;;;;;;5014377;28;20018;-86
2021/07/08 12:12:54;;;;;;;2.83;1.30;;;22.30;89.60;;;;;;5013888;28;20026;-86
2021/07/08 12:15:21;;;;;;;2.30;1.10;;;22.40;89.30;;;;;;4995092;28;20026;-86
2021/07/08 12:17:59;;;;;;;2.00;1.00;;;22.90;88.20;;;;;;5014266;28;20029;-87
2021/07/08 12:20:26;;;;;;;2.70;1.05;;;23.40;87.00;;;;;;5014426;28;20169;-87
2021/07/08 12:23:04;;;;;;;4.53;1.27;;;23.40;86.10;;;;;;4997436;28;20444;-86
2021/07/08 12:25:31;;;;;;;2.22;1.20;;;23.60;85.40;;;;;;4997494;28;20034;-86
2021/07/08 12:27:57;;;;;;;3.28;1.38;;;23.30;85.40;;;;;;5015033;28;20126;-86
2021/07/08 12:30:28;;;;;;;2.90;1.40;;;23.30;85.60;;;;;;5013209;28;20843;-86
2021/07/08 12:33:10;;;;;;;4.82;1.67;;;23.40;84.10;;;;;;4997157;28;20105;-86
2021/07/08 12:35:49;;;;;;;3.88;2.35;;;23.10;86.90;;;;;;5001086;28;20025;-86
2021/07/08 12:38:17;;;;;;;3.13;1.73;;;22.30;91.30;;;;;;5001129;28;20022;-87
2021/07/08 12:40:46;;;;;;;3.33;1.90;;;22.00;91.70;;;;;;5001481;28;20061;-86
2021/07/08 12:43:15;;;;;;;3.38;2.00;;;22.00;91.50;;;;;;5000979;28;20105;-86
2021/07/08 12:45:42;;;;;;;3.63;1.63;;;22.00;91.00;;;;;;5017397;28;20025;-86
2021/07/08 12:48:14;;;;;;;4.03;2.00;;;21.70;90.40;;;;;;5000491;28;20026;-86
2021/07/08 12:50:42;;;;;;;3.92;2.13;;;21.90;91.20;;;;;;5001118;28;20315;-86
2021/07/08 12:53:13;;;;;;;6.07;2.00;;;22.00;91.20;;;;;;5017028;28;20026;-87